createdAt,value
2018-06-20T00:00:14.389Z,18.60
2018-06-20T00:02:44.764Z,18.60
2018-06-20T00:05:15.143Z,18.50
2018-06-20T00:07:45.531Z,18.60
2018-06-20T00:10:15.910Z,18.50
2018-06-20T00:12:46.287Z,18.40
2018-06-20T00:15:16.621Z,18.30
2018-06-20T00:17:47.651Z,18.10
2018-06-20T00:20:18.029Z,18.20
2018-06-20T00:22:48.429Z,18.20
2018-06-20T00:25:18.798Z,18.30
2018-06-20T00:27:49.182Z,18.20
2018-06-20T00:30:20.355Z,18.30
2018-06-20T00:32:50.729Z,18.30
2018-06-20T00:35:21.776Z,18.20
2018-06-20T00:37:52.177Z,18.20
2018-06-20T00:40:22.566Z,18.30
2018-06-20T00:42:52.936Z,18.30
2018-06-20T00:45:23.340Z,18.40
2018-06-20T00:47:57.801Z,18.30
2018-06-20T00:50:28.174Z,18.30
2018-06-20T00:52:58.585Z,18.30
2018-06-20T00:55:28.965Z,18.20
2018-06-20T00:57:59.345Z,18.20
2018-06-20T01:00:29.741Z,18.20
2018-06-20T01:03:00.097Z,18.20
2018-06-20T01:05:30.662Z,18.20
2018-06-20T01:08:21.458Z,18.20
2018-06-20T01:10:53.877Z,18.20
2018-06-20T01:13:25.038Z,18.20
2018-06-20T01:15:55.425Z,18.20
2018-06-20T01:18:25.805Z,18.10
2018-06-20T01:20:56.189Z,18.10
2018-06-20T01:23:26.583Z,18.10
2018-06-20T01:25:56.965Z,18.00
2018-06-20T01:28:27.342Z,18.00
2018-06-20T01:30:59.794Z,17.90
2018-06-20T01:33:30.178Z,17.90
2018-06-20T01:36:00.561Z,18.00
2018-06-20T01:38:37.118Z,18.00
2018-06-20T01:41:07.494Z,17.90
2018-06-20T01:43:37.870Z,18.00
2018-06-20T01:46:08.286Z,17.90
2018-06-20T01:48:38.659Z,17.90
2018-06-20T01:51:09.040Z,17.90
2018-06-20T01:53:39.452Z,17.80
2018-06-20T01:56:10.601Z,17.70
2018-06-20T01:58:41.750Z,17.80
2018-06-20T02:01:12.156Z,17.80
2018-06-20T02:03:43.304Z,17.80
2018-06-20T02:06:14.456Z,17.90
2018-06-20T02:08:45.627Z,17.90
2018-06-20T02:11:16.006Z,17.90
2018-06-20T02:13:46.395Z,17.90
2018-06-20T02:16:16.796Z,17.70
2018-06-20T02:18:47.183Z,17.60
2018-06-20T02:21:17.751Z,17.60
2018-06-20T02:23:48.149Z,17.60
2018-06-20T02:26:19.306Z,17.70
2018-06-20T02:28:50.447Z,17.70
2018-06-20T02:31:21.612Z,17.60
2018-06-20T02:33:52.000Z,17.60
2018-06-20T02:36:22.317Z,17.40
2018-06-20T02:38:52.720Z,17.50
2018-06-20T02:41:42.466Z,17.60
2018-06-20T02:44:12.881Z,17.60
2018-06-20T02:46:44.025Z,17.60
2018-06-20T02:49:15.108Z,17.60
2018-06-20T02:51:45.512Z,17.60
2018-06-20T02:54:15.882Z,17.60
2018-06-20T02:56:46.196Z,17.60
2018-06-20T02:59:35.976Z,17.60
2018-06-20T03:02:10.455Z,17.40
2018-06-20T03:04:40.835Z,17.50
2018-06-20T03:07:11.242Z,17.50
2018-06-20T03:09:41.627Z,17.50
2018-06-20T03:12:12.003Z,17.40
2018-06-20T03:14:42.406Z,17.40
2018-06-20T03:17:12.790Z,17.40
2018-06-20T03:19:43.180Z,17.40
2018-06-20T03:22:13.587Z,17.40
2018-06-20T03:24:43.964Z,17.40
2018-06-20T03:27:15.373Z,17.40
2018-06-20T03:29:45.764Z,17.40
2018-06-20T03:32:16.905Z,17.30
2018-06-20T03:34:47.217Z,17.20
2018-06-20T03:37:17.618Z,17.30
2018-06-20T03:39:48.014Z,17.20
2018-06-20T03:42:18.391Z,17.30
2018-06-20T03:44:48.741Z,17.20
2018-06-20T03:47:19.305Z,17.20
2018-06-20T03:52:37.411Z,17.20
2018-06-20T03:55:08.449Z,17.20
2018-06-20T03:57:38.832Z,17.20
2018-06-20T04:00:09.249Z,17.10
2018-06-20T04:02:39.626Z,17.20
2018-06-20T04:05:10.001Z,17.20
2018-06-20T04:07:40.399Z,17.20
2018-06-20T04:10:11.542Z,17.10
2018-06-20T04:12:42.128Z,17.10
2018-06-20T04:15:12.456Z,17.20
2018-06-20T04:17:48.910Z,17.10
2018-06-20T04:20:19.306Z,17.20
2018-06-20T04:22:49.623Z,17.20
2018-06-20T04:25:20.948Z,17.10
2018-06-20T04:27:51.347Z,17.10
2018-06-20T04:30:21.722Z,17.10
2018-06-20T04:32:52.874Z,17.30
2018-06-20T04:35:23.224Z,17.20
2018-06-20T04:37:53.599Z,17.30
2018-06-20T04:40:23.985Z,17.40
2018-06-20T04:42:57.441Z,17.40
2018-06-20T04:45:28.585Z,17.50
2018-06-20T04:47:59.726Z,17.40
2018-06-20T04:50:30.887Z,17.60
2018-06-20T04:53:01.257Z,17.60
2018-06-20T04:55:50.966Z,17.80
2018-06-20T04:58:21.331Z,17.80
2018-06-20T05:00:51.707Z,17.90
2018-06-20T05:03:22.114Z,17.80
2018-06-20T05:06:13.903Z,18.00
2018-06-20T05:08:44.301Z,17.80
2018-06-20T05:11:15.446Z,17.90
2018-06-20T05:13:45.825Z,17.90
2018-06-20T05:16:18.268Z,17.70
2018-06-20T05:18:50.438Z,17.80
2018-06-20T05:21:21.569Z,17.90
2018-06-20T05:23:52.740Z,18.00
2018-06-20T05:26:23.122Z,18.00
2018-06-20T05:28:53.494Z,17.80
2018-06-20T05:31:24.593Z,17.80
2018-06-20T05:33:54.980Z,17.70
2018-06-20T05:36:25.361Z,17.50
2018-06-20T05:38:56.535Z,17.70
2018-06-20T05:41:26.909Z,17.60
2018-06-20T05:43:57.287Z,17.80
2018-06-20T05:46:27.905Z,17.80
2018-06-20T05:48:58.292Z,18.10
2018-06-20T05:51:28.672Z,18.10
2018-06-20T05:53:59.090Z,18.10
2018-06-20T05:56:30.233Z,18.40
2018-06-20T05:59:00.602Z,18.30
2018-06-20T06:01:33.057Z,18.30
2018-06-20T06:04:03.426Z,18.50
2018-06-20T06:06:33.809Z,18.60
2018-06-20T06:09:04.210Z,18.70
2018-06-20T06:11:34.540Z,18.70
2018-06-20T06:14:04.912Z,18.80
2018-06-20T06:16:35.312Z,18.90
2018-06-20T06:19:05.703Z,18.80
2018-06-20T06:21:36.851Z,19.40
2018-06-20T06:24:07.249Z,19.30
2018-06-20T06:26:37.628Z,19.60
2018-06-20T06:29:07.995Z,19.90
2018-06-20T06:31:38.399Z,19.90
2018-06-20T06:34:08.787Z,20.20
2018-06-20T06:36:39.951Z,20.40
2018-06-20T06:39:10.377Z,20.40
2018-06-20T06:41:40.758Z,20.50
2018-06-20T06:44:11.138Z,20.60
2018-06-20T06:46:41.549Z,20.60
2018-06-20T06:49:11.931Z,20.80
2018-06-20T06:51:42.499Z,20.80
2018-06-20T06:54:12.907Z,20.90
2018-06-20T06:56:43.289Z,21.10
2018-06-20T06:59:13.852Z,21.30
2018-06-20T07:01:46.301Z,21.40
2018-06-20T07:04:19.756Z,21.40
2018-06-20T07:06:50.137Z,21.40
2018-06-20T07:09:20.546Z,21.50
2018-06-20T07:11:50.805Z,21.40
2018-06-20T07:14:21.192Z,21.60
2018-06-20T07:17:10.972Z,21.90
2018-06-20T07:19:43.589Z,21.80
2018-06-20T07:22:13.959Z,21.80
2018-06-20T07:24:44.363Z,22.00
2018-06-20T07:27:15.500Z,22.10
2018-06-20T07:29:46.695Z,22.20
2018-06-20T07:32:17.801Z,22.20
2018-06-20T07:34:48.952Z,22.20
2018-06-20T07:37:19.272Z,22.20
2018-06-20T07:39:50.442Z,22.20
2018-06-20T07:42:20.758Z,22.20
2018-06-20T07:44:51.140Z,22.30
2018-06-20T07:47:21.549Z,22.20
2018-06-20T07:49:52.109Z,22.50
2018-06-20T07:52:23.244Z,22.50
2018-06-20T07:54:55.703Z,22.50
2018-06-20T07:57:26.082Z,22.50
2018-06-20T08:03:26.548Z,22.50
2018-06-20T08:06:03.328Z,22.50
2018-06-20T08:08:39.346Z,22.60
2018-06-20T08:11:27.684Z,22.80
2018-06-20T08:14:03.778Z,22.80
2018-06-20T08:16:34.159Z,22.70
2018-06-20T08:19:06.970Z,22.80
2018-06-20T08:21:38.146Z,23.20
2018-06-20T08:24:08.715Z,23.20
2018-06-20T08:26:39.102Z,23.30
2018-06-20T08:29:09.489Z,23.20
2018-06-20T08:31:39.874Z,23.50
2018-06-20T08:34:10.255Z,23.40
2018-06-20T08:36:40.667Z,23.50
2018-06-20T08:39:11.039Z,23.40
2018-06-20T08:41:43.466Z,23.40
2018-06-20T08:44:14.638Z,23.90
2018-06-20T08:46:45.019Z,23.90
2018-06-20T08:49:15.406Z,23.80
2018-06-20T08:51:45.743Z,23.80
2018-06-20T08:54:20.211Z,23.90
2018-06-20T08:56:51.229Z,23.90
2018-06-20T08:59:21.640Z,23.90
2018-06-20T09:01:54.070Z,24.00
2018-06-20T09:04:25.182Z,24.10
2018-06-20T09:07:04.545Z,24.20
2018-06-20T09:09:34.924Z,24.20
2018-06-20T09:12:17.274Z,23.70
2018-06-20T09:14:47.656Z,23.70
2018-06-20T09:17:24.191Z,23.70
2018-06-20T09:19:54.504Z,23.80
2018-06-20T09:22:25.664Z,24.20
2018-06-20T09:24:55.997Z,24.20
2018-06-20T09:27:26.380Z,24.40
2018-06-20T09:29:56.773Z,24.00
2018-06-20T09:32:33.297Z,23.80
2018-06-20T09:35:03.676Z,23.20
2018-06-20T09:37:34.061Z,22.90
2018-06-20T09:40:04.450Z,22.70
2018-06-20T09:42:34.826Z,23.30
2018-06-20T09:45:05.208Z,23.80
2018-06-20T09:47:35.617Z,24.00
2018-06-20T09:50:05.982Z,24.20
2018-06-20T09:52:36.544Z,24.20
2018-06-20T09:55:10.024Z,24.40
2018-06-20T09:57:40.389Z,24.60
2018-06-20T10:00:10.775Z,24.70
2018-06-20T10:02:43.806Z,24.40
2018-06-20T10:05:16.929Z,24.50
2018-06-20T10:07:48.379Z,24.60
2018-06-20T10:10:19.551Z,24.70
2018-06-20T10:12:49.917Z,24.70
2018-06-20T10:15:20.300Z,24.60
2018-06-20T10:17:50.709Z,24.50
2018-06-20T10:20:21.902Z,24.90
2018-06-20T10:22:52.976Z,24.80
2018-06-20T10:25:23.378Z,24.80
2018-06-20T10:27:54.777Z,24.90
2018-06-20T10:30:25.154Z,24.70
2018-06-20T10:32:55.557Z,25.00
2018-06-20T10:35:25.932Z,25.10
2018-06-20T10:37:56.255Z,25.20
2018-06-20T10:40:26.850Z,25.20
2018-06-20T10:43:00.313Z,25.20
2018-06-20T10:45:30.702Z,25.10
2018-06-20T10:48:01.167Z,25.30
2018-06-20T10:50:31.544Z,25.30
2018-06-20T10:53:01.923Z,25.10
2018-06-20T10:55:32.273Z,25.00
2018-06-20T10:58:20.550Z,25.10
2018-06-20T11:01:05.937Z,25.10
2018-06-20T11:06:42.305Z,25.20
2018-06-20T11:09:34.532Z,25.40
2018-06-20T11:12:16.767Z,25.40
2018-06-20T11:14:47.348Z,25.30
2018-06-20T11:17:17.716Z,25.40
2018-06-20T11:19:48.138Z,25.50
2018-06-20T11:22:18.526Z,25.40
2018-06-20T11:24:49.565Z,25.50
2018-06-20T11:27:20.668Z,25.50
2018-06-20T11:29:51.048Z,25.50
2018-06-20T11:32:21.432Z,25.70
2018-06-20T11:34:51.838Z,25.70
2018-06-20T11:37:22.216Z,25.70
2018-06-20T11:39:52.586Z,26.00
2018-06-20T11:42:22.990Z,26.00
2018-06-20T11:44:53.367Z,26.10
2018-06-20T11:47:32.459Z,25.60
2018-06-20T11:50:02.834Z,25.70
2018-06-20T11:52:33.279Z,25.80
2018-06-20T11:55:10.774Z,25.90
2018-06-20T11:57:41.159Z,25.70
2018-06-20T12:00:14.168Z,25.80
2018-06-20T12:02:57.533Z,25.90
2018-06-20T12:05:35.038Z,25.90
2018-06-20T12:08:17.239Z,26.10
2018-06-20T12:10:50.214Z,25.70
2018-06-20T12:13:29.549Z,25.60
2018-06-20T12:16:11.778Z,25.90
2018-06-20T12:19:18.484Z,26.00
2018-06-20T12:22:06.860Z,25.80
2018-06-20T12:24:54.981Z,25.70
2018-06-20T12:27:43.110Z,25.90
2018-06-20T12:30:31.312Z,26.10
2018-06-20T12:33:19.490Z,26.20
2018-06-20T12:36:07.687Z,26.30
2018-06-20T12:38:55.843Z,25.90
2018-06-20T12:41:26.219Z,26.30
2018-06-20T12:44:14.776Z,26.20
2018-06-20T12:46:45.178Z,26.40
2018-06-20T12:49:15.561Z,26.30
2018-06-20T12:51:45.929Z,26.50
2018-06-20T12:54:16.331Z,26.50
2018-06-20T12:56:46.716Z,26.50
2018-06-20T12:59:17.087Z,26.40
2018-06-20T13:01:50.562Z,26.50
2018-06-20T13:04:20.941Z,26.00
2018-06-20T13:06:51.519Z,25.80
2018-06-20T13:09:21.920Z,26.10
2018-06-20T13:11:52.302Z,26.10
2018-06-20T13:14:22.681Z,26.30
2018-06-20T13:16:53.862Z,26.60
2018-06-20T13:19:24.244Z,26.60
2018-06-20T13:21:54.569Z,26.50
2018-06-20T13:24:25.729Z,26.40
2018-06-20T13:26:56.483Z,26.40
2018-06-20T13:29:29.502Z,26.60
2018-06-20T13:32:00.928Z,26.80
2018-06-20T13:34:33.917Z,26.30
2018-06-20T13:37:10.007Z,25.80
2018-06-20T13:39:45.897Z,26.00
2018-06-20T13:42:37.409Z,26.10
2018-06-20T13:45:10.473Z,26.00
2018-06-20T13:47:40.852Z,26.20
2018-06-20T13:50:11.257Z,26.10
2018-06-20T13:52:41.630Z,26.30
2018-06-20T13:55:12.035Z,26.20
2018-06-20T13:57:42.441Z,26.30
2018-06-20T14:00:14.612Z,26.40
2018-06-20T14:02:48.744Z,26.30
2018-06-20T14:05:19.116Z,26.30
2018-06-20T14:07:49.443Z,26.30
2018-06-20T14:10:21.887Z,26.40
2018-06-20T14:12:55.072Z,26.30
2018-06-20T14:15:25.398Z,26.40
2018-06-20T14:17:55.805Z,26.40
2018-06-20T14:20:26.955Z,26.40
2018-06-20T14:22:58.785Z,26.50
2018-06-20T14:25:31.625Z,26.40
2018-06-20T14:28:03.987Z,26.30
2018-06-20T14:30:36.775Z,25.90
2018-06-20T14:36:12.939Z,26.00
2018-06-20T14:38:49.190Z,25.90
2018-06-20T14:41:19.350Z,25.90
2018-06-20T14:43:52.422Z,25.70
2018-06-20T14:46:22.837Z,25.40
2018-06-20T14:48:53.221Z,25.30
2018-06-20T14:51:23.600Z,25.50
2018-06-20T14:53:54.001Z,25.40
2018-06-20T14:56:24.322Z,25.20
2018-06-20T14:58:55.462Z,25.10
2018-06-20T15:01:25.863Z,25.10
2018-06-20T15:03:56.239Z,25.10
2018-06-20T15:06:26.618Z,25.10
2018-06-20T15:08:59.758Z,25.30
2018-06-20T15:11:30.138Z,25.30
2018-06-20T15:14:00.522Z,25.20
2018-06-20T15:16:30.923Z,25.40
2018-06-20T15:19:02.063Z,26.00
2018-06-20T15:21:33.211Z,25.60
2018-06-20T15:24:03.621Z,25.60
2018-06-20T15:26:33.998Z,25.30
2018-06-20T15:29:23.113Z,25.30
2018-06-20T15:31:59.011Z,25.50
2018-06-20T15:34:48.756Z,25.50
2018-06-20T15:37:37.128Z,25.50
2018-06-20T15:40:10.084Z,25.60
2018-06-20T15:42:40.461Z,25.70
2018-06-20T15:45:14.416Z,25.90
2018-06-20T15:47:44.817Z,26.00
2018-06-20T15:50:15.188Z,26.10
2018-06-20T15:52:45.575Z,25.90
2018-06-20T15:55:15.968Z,25.90
2018-06-20T15:57:46.353Z,25.90
2018-06-20T16:00:16.946Z,25.80
2018-06-20T16:02:48.063Z,25.90
2018-06-20T16:05:18.373Z,25.90
2018-06-20T16:07:49.514Z,25.90
2018-06-20T16:10:19.912Z,25.80
2018-06-20T16:12:50.290Z,25.70
2018-06-20T16:15:20.667Z,25.70
2018-06-20T16:17:51.058Z,25.70
2018-06-20T16:20:21.437Z,25.70
2018-06-20T16:23:10.899Z,25.70
2018-06-20T16:25:47.227Z,25.70
2018-06-20T16:28:36.884Z,25.60
2018-06-20T16:31:07.265Z,25.60
2018-06-20T16:33:37.641Z,25.50
2018-06-20T16:36:07.973Z,25.60
2018-06-20T16:38:39.067Z,25.40
2018-06-20T16:43:53.680Z,25.20
2018-06-20T16:46:24.066Z,25.30
2018-06-20T16:48:54.495Z,25.30
2018-06-20T16:51:30.528Z,25.20
2018-06-20T16:54:06.029Z,25.20
2018-06-20T16:56:37.777Z,25.20
2018-06-20T16:59:14.763Z,25.10
2018-06-20T17:01:45.928Z,25.00
2018-06-20T17:04:16.302Z,25.00
2018-06-20T17:06:49.119Z,25.00
2018-06-20T17:09:20.276Z,24.90
2018-06-20T17:11:54.481Z,25.10
2018-06-20T17:14:25.623Z,24.90
2018-06-20T17:17:08.218Z,24.70
2018-06-20T17:19:47.033Z,24.70
2018-06-20T17:22:38.138Z,24.70
2018-06-20T17:25:11.245Z,24.80
2018-06-20T17:27:41.609Z,24.80
2018-06-20T17:30:12.019Z,24.90
2018-06-20T17:32:45.197Z,24.50
2018-06-20T17:35:21.834Z,24.50
2018-06-20T17:37:55.343Z,24.40
2018-06-20T17:40:26.413Z,24.40
2018-06-20T17:42:57.561Z,24.50
2018-06-20T17:45:28.689Z,24.60
2018-06-20T17:47:59.063Z,24.60
2018-06-20T17:50:29.455Z,24.60
2018-06-20T17:53:00.606Z,24.40
2018-06-20T17:55:34.480Z,24.40
2018-06-20T17:58:05.037Z,24.40
2018-06-20T18:00:38.829Z,24.30
2018-06-20T18:03:09.205Z,24.30
2018-06-20T18:05:44.564Z,24.20
2018-06-20T18:08:23.696Z,24.20
2018-06-20T18:10:56.762Z,24.20
2018-06-20T18:13:27.323Z,24.20
2018-06-20T18:16:12.572Z,24.20
2018-06-20T18:18:42.890Z,24.20
2018-06-20T18:21:15.751Z,24.30
2018-06-20T18:23:46.381Z,24.30
2018-06-20T18:26:16.759Z,24.20
2018-06-20T18:28:54.315Z,24.30
2018-06-20T18:31:27.141Z,24.20
2018-06-20T18:33:57.461Z,24.20
2018-06-20T18:39:15.501Z,24.00
2018-06-20T18:41:45.895Z,24.00
2018-06-20T18:44:17.035Z,23.80
2018-06-20T18:46:52.899Z,23.80
2018-06-20T18:49:24.220Z,23.70
2018-06-20T18:51:54.596Z,23.70
2018-06-20T18:54:24.994Z,23.80
2018-06-20T18:56:56.127Z,23.80
2018-06-20T18:59:28.996Z,23.70
2018-06-20T19:02:05.274Z,23.80
2018-06-20T19:04:53.711Z,23.90
2018-06-20T19:07:29.829Z,23.80
2018-06-20T19:10:00.206Z,23.80
2018-06-20T19:12:30.585Z,23.80
2018-06-20T19:15:01.020Z,23.80
2018-06-20T19:17:31.366Z,23.80
2018-06-20T19:20:10.318Z,23.70
2018-06-20T19:22:40.695Z,23.60
2018-06-20T19:25:11.070Z,23.60
2018-06-20T19:27:42.431Z,23.50
2018-06-20T19:30:16.151Z,23.40
2018-06-20T19:32:52.199Z,23.40
2018-06-20T19:35:22.508Z,23.40
2018-06-20T19:37:52.882Z,23.30
2018-06-20T19:40:23.477Z,23.30
2018-06-20T19:42:53.858Z,23.20
2018-06-20T19:45:24.232Z,23.20
2018-06-20T19:47:58.537Z,23.00
2018-06-20T19:50:28.911Z,23.00
2018-06-20T19:52:59.290Z,23.00
2018-06-20T19:55:32.186Z,22.90
2018-06-20T19:58:03.331Z,22.70
2018-06-20T20:00:34.414Z,22.70
2018-06-20T20:03:04.754Z,22.70
2018-06-20T20:05:39.834Z,22.60
2018-06-20T20:08:16.123Z,22.70
2018-06-20T20:10:46.511Z,22.60
2018-06-20T20:13:16.896Z,22.50
2018-06-20T20:15:47.317Z,22.60
2018-06-20T20:18:17.674Z,22.50
2018-06-20T20:20:48.114Z,22.50
2018-06-20T20:23:18.869Z,22.50
2018-06-20T20:25:50.203Z,22.50
2018-06-20T20:28:20.578Z,22.40
2018-06-20T20:30:51.007Z,22.40
2018-06-20T20:36:11.643Z,22.40
2018-06-20T20:38:44.062Z,22.30
2018-06-20T20:41:17.303Z,22.30
2018-06-20T20:43:48.707Z,22.20
2018-06-20T20:46:19.083Z,22.20
2018-06-20T20:48:53.572Z,22.10
2018-06-20T20:51:23.944Z,22.10
2018-06-20T20:54:01.804Z,22.00
2018-06-20T20:56:32.180Z,22.00
2018-06-20T20:59:02.568Z,22.00
2018-06-20T21:01:32.947Z,22.10
2018-06-20T21:04:03.407Z,22.00
2018-06-20T21:06:33.727Z,22.00
2018-06-20T21:09:05.154Z,22.10
2018-06-20T21:11:35.601Z,22.00
2018-06-20T21:14:05.912Z,22.10
2018-06-20T21:16:36.357Z,22.00
2018-06-20T21:19:06.689Z,22.00
2018-06-20T21:21:40.651Z,21.90
2018-06-20T21:24:11.065Z,21.90
2018-06-20T21:26:48.060Z,21.90
2018-06-20T21:29:18.402Z,21.90
2018-06-20T21:31:48.799Z,21.90
2018-06-20T21:34:26.360Z,21.80
2018-06-20T21:36:56.732Z,21.80
2018-06-20T21:39:27.290Z,21.80
2018-06-20T21:41:57.693Z,21.80
2018-06-20T21:44:28.073Z,21.80
2018-06-20T21:46:58.451Z,21.80
2018-06-20T21:49:30.774Z,21.70
2018-06-20T21:52:01.153Z,21.70
2018-06-20T21:54:31.524Z,21.80
2018-06-20T21:57:01.870Z,21.70
2018-06-20T21:59:32.245Z,21.70
2018-06-20T22:02:02.619Z,21.70
2018-06-20T22:04:33.027Z,21.60
2018-06-20T22:07:03.407Z,21.60
2018-06-20T22:09:33.884Z,21.50
2018-06-20T22:12:04.183Z,21.30
2018-06-20T22:14:35.320Z,21.20
2018-06-20T22:17:05.714Z,21.20
2018-06-20T22:19:39.279Z,21.10
2018-06-20T22:22:09.566Z,21.00
2018-06-20T22:24:39.945Z,21.10
2018-06-20T22:27:13.403Z,21.00
2018-06-20T22:29:44.550Z,21.00
2018-06-20T22:32:15.691Z,21.00
2018-06-20T22:34:46.853Z,20.90
2018-06-20T22:37:17.230Z,21.00
2018-06-20T22:39:47.604Z,21.00
2018-06-20T22:42:18.769Z,21.00
2018-06-20T22:44:49.149Z,21.00
2018-06-20T22:47:19.524Z,20.90
2018-06-20T22:49:50.618Z,20.90
2018-06-20T22:52:21.661Z,20.80
2018-06-20T22:54:52.034Z,20.80
2018-06-20T22:57:22.438Z,20.80
2018-06-20T22:59:52.810Z,20.80
2018-06-20T23:02:30.510Z,20.70
2018-06-20T23:05:01.912Z,20.70
2018-06-20T23:07:33.234Z,20.60
2018-06-20T23:10:03.633Z,20.60
2018-06-20T23:12:35.043Z,20.70
2018-06-20T23:15:05.416Z,20.60
2018-06-20T23:17:35.794Z,20.60
2018-06-20T23:20:06.178Z,20.70
2018-06-20T23:22:36.493Z,20.60
2018-06-20T23:25:06.899Z,20.50
2018-06-20T23:27:37.277Z,20.50
2018-06-20T23:30:08.417Z,20.60
2018-06-20T23:32:38.819Z,20.60
2018-06-20T23:35:09.375Z,20.60
2018-06-20T23:37:39.748Z,20.40
2018-06-20T23:40:10.091Z,20.50
2018-06-20T23:42:42.523Z,20.50
2018-06-20T23:45:12.924Z,20.50
2018-06-20T23:47:43.342Z,20.60
2018-06-20T23:50:13.711Z,20.60
2018-06-20T23:52:45.106Z,20.40
2018-06-20T23:55:15.517Z,20.40
2018-06-20T23:57:50.003Z,20.30
